Terminal Aerodrome Forecast
Issued by NWS

Home | Current Version | Previous Version | Text Only | Print | Product List | Glossary Off
Versions: 1 2 3 4 5 6 7 8 9 10 11 12 13 14 15 16 17 18 19 20 21 22 23 24 25

000
FTUS43 KBIS 201900 AAA
TAFMOT
TAF AMD
KMOT 201936Z 2020/2118 17007KT P6SM BKN060 OVC090
     FM202100 21008KT P6SM FEW040 SCT070
     FM210200 23005KT P6SM VCSH SCT045 BKN060
     FM210500 24005KT P6SM FEW150
     FM211300 17008KT P6SM FEW120=

USA.gov is the U.S. government's official web portal to all federal, state and local government web resources and services.